Date,TemperatureHighF,TemperatureAvgF,TemperatureLowF,DewpointHighF,DewpointAvgF,DewpointLowF,HumidityHigh,HumidityAvg,HumidityLow,PressureMaxIn,PressureMinIn,WindSpeedMaxMPH,WindSpeedAvgMPH,GustSpeedMaxMPH,PrecipitationSumIn
2012-1-1,51.0,43.2,31.7,44.3,39.3,30.4,98,87,66,30.07,29.59,14,1,14,0.14
2012-1-2,45.5,35.5,26.9,43.9,26.7,17.3,95,71,47,29.75,29.57,17,2,17,0.03
2012-1-3,28.0,18.3,8.1,20.3,8.7,-3.0,84,66,55,30.14,29.74,16,1,16,0.00
2012-1-4,21.6,13.8,5.2,12.5,4.7,-4.6,81,67,59,30.21,29.92,13,0,13,0.00
2012-1-5,35.9,27.5,21.6,25.1,18.3,12.4,76,68,59,29.93,29.79,14,1,14,0.00
2012-1-6,48.7,36.0,26.9,30.8,26.5,20.1,87,69,48,29.92,29.68,14,1,14,0.00
2012-1-7,55.7,38.7,25.6,36.9,30.5,24.1,95,75,47,29.95,29.66,6,0,10,0.00
2012-1-8,38.0,33.5,21.4,31.7,24.9,17.2,84,71,59,30.31,29.94,14,0,14,0.00
2012-1-9,40.6,28.1,17.6,24.4,18.2,15.2,93,69,38,30.32,29.95,11,0,11,0.00
2012-1-10,40.5,34.8,27.1,30.8,25.6,20.9,79,69,60,29.98,29.81,11,1,11,0.00
2012-1-11,45.7,35.8,27.7,32.8,27.5,23.8,88,73,50,30.08,29.94,11,1,11,0.00
2012-1-12,38.4,35.5,33.3,34.7,33.3,31.6,95,92,84,29.87,29.46,32,5,32,1.49
2012-1-13,44.0,33.4,25.5,42.1,29.1,16.6,97,85,64,29.67,29.17,18,3,18,0.18
2012-1-14,29.7,23.8,13.4,21.5,15.9,7.6,81,71,60,30.08,29.67,14,1,14,0.00
2012-1-15,16.4,9.0,1.6,9.4,-0.8,-4.9,83,65,41,30.60,30.08,14,1,14,0.00
2012-1-16,30.2,17.0,1.7,25.9,8.3,-1.7,99,71,37,30.61,30.11,13,1,13,0.00
2012-1-17,44.5,36.2,28.7,43.0,34.0,25.6,100,92,86,30.11,29.47,6,1,12,0.12
2012-1-18,44.7,29.4,15.5,43.0,18.8,8.1,94,65,48,30.16,29.46,14,-270,14,0.02
2012-1-19,29.7,20.2,6.7,26.5,12.8,3.8,93,75,43,30.25,29.92,14,1,14,0.00
2012-1-20,28.2,21.7,16.3,26.2,12.6,5.3,94,68,52,30.30,29.92,18,1,18,0.00
2012-1-21,21.4,16.4,6.0,17.1,12.2,2.9,91,84,55,30.35,30.09,7,0,7,0.00
2012-1-22,31.6,18.1,1.5,25.9,12.7,-1.4,91,80,62,30.57,30.35,14,1,14,0.08
2012-1-23,51.4,40.5,31.6,49.6,37.6,26.1,97,89,79,30.42,29.83,24,2,24,0.20
2012-1-24,49.6,42.5,34.2,48.5,38.8,30.2,96,87,72,30.10,29.82,12,1,12,0.00
2012-1-25,35.3,33.1,31.1,30.3,27.4,26.1,85,79,72,30.28,30.09,13,1,13,0.00
2012-1-26,35.9,32.7,29.7,34.3,29.7,27.1,96,89,77,30.22,29.84,7,0,11,0.18
2012-1-27,50.4,40.4,35.6,49.9,38.3,32.2,98,92,79,29.84,29.27,19,3,19,0.73
2012-1-28,44.8,37.9,31.8,32.3,28.8,24.4,83,70,56,29.99,29.77,20,1,20,0.00
2012-1-29,40.7,34.4,29.0,24.4,18.7,15.0,69,53,42,30.10,29.92,14,2,14,0.00
2012-1-30,34.9,29.9,22.2,25.4,20.8,18.3,90,69,55,30.27,29.92,21,1,21,0.00
2012-1-31,52.7,42.0,26.5,33.2,26.2,18.6,84,54,41,30.25,29.94,11,1,11,0.00
2012-2-1,56.4,47.9,39.8,47.1,38.7,32.2,89,71,52,30.00,29.77,12,1,12,0.07
2012-2-2,39.7,35.2,28.0,32.8,28.7,21.9,83,77,74,30.25,29.98,11,0,11,0.00
2012-2-3,40.4,30.3,19.8,25.8,21.0,14.6,82,69,48,30.45,30.25,13,1,14,0.00
2012-2-4,41.5,33.7,24.9,28.6,25.3,19.8,83,71,57,30.29,30.13,11,0,11,0.00
2012-2-5,33.7,25.1,16.8,20.1,17.3,14.1,98,73,52,30.18,30.10,11,0,11,0.00
2012-2-6,49.4,30.9,17.1,29.6,22.6,15.0,94,73,42,30.13,29.89,9,0,9,0.00
2012-2-7,43.1,33.7,24.0,30.9,26.3,18.3,93,75,56,30.26,29.93,7,0,15,0.00
2012-2-8,33.9,27.4,17.7,25.4,16.6,13.9,89,65,45,30.32,30.08,5,0,8,0.00
2012-2-9,43.7,30.6,20.8,25.5,21.3,16.9,94,71,37,30.12,30.03,12,1,12,0.00
2012-2-10,43.9,30.3,18.5,26.7,21.2,15.8,93,71,45,30.11,29.93,11,1,14,0.00
2012-2-11,36.5,30.5,18.4,30.0,24.3,11.8,92,77,68,29.79,29.58,10,0,10,0.00
2012-2-12,23.5,17.6,10.7,13.3,7.5,-2.1,78,64,53,29.92,29.71,14,1,14,0.00
2012-2-13,42.0,28.5,17.1,21.5,17.3,11.2,84,65,38,30.00,29.87,19,2,19,0.00
2012-2-14,40.7,31.2,19.3,27.0,22.3,13.6,88,71,41,30.08,30.00,10,0,10,0.00
2012-2-15,42.2,35.9,31.0,37.9,32.6,26.2,96,88,72,30.27,30.07,6,0,6,0.06
2012-2-16,37.6,31.5,23.2,36.3,29.4,21.7,97,92,79,30.28,29.98,7,0,7,0.23
2012-2-17,48.6,39.3,32.3,39.0,32.1,23.2,97,78,44,29.99,29.90,18,1,18,0.02
2012-2-18,40.9,35.3,27.7,32.0,26.9,22.6,93,72,50,30.02,29.84,12,1,12,0.00
2012-2-19,41.1,32.9,24.8,31.5,24.1,20.8,89,71,47,30.10,29.98,10,1,10,0.01
2012-2-20,37.2,28.3,20.1,21.9,18.8,15.5,87,69,42,30.34,30.01,13,0,13,0.00
2012-2-21,41.1,30.7,14.9,34.7,23.1,13.0,94,75,44,30.36,29.82,16,1,16,0.00
2012-2-22,54.0,45.2,38.9,38.0,32.3,26.9,83,62,36,29.82,29.45,13,2,14,0.00
2012-2-23,46.9,39.9,34.5,40.0,33.7,27.5,95,80,49,29.59,29.35,13,1,13,0.08
2012-2-24,37.1,34.8,0.0,35.1,33.3,0.0,97,93,90,29.69,29.30,14,1,14,0.35
2012-2-25,38.4,33.8,27.4,34.1,23.9,16.2,96,67,54,29.95,29.30,24,3,24,0.01
2012-2-26,39.6,28.7,21.7,17.8,14.4,6.9,80,57,29,30.44,29.95,16,1,16,0.00
2012-2-27,48.7,35.4,18.5,33.6,24.7,14.7,87,66,50,30.44,30.03,12,1,12,0.00
2012-2-28,42.7,35.9,27.6,30.1,23.3,18.7,77,61,45,30.39,30.12,17,1,18,4.00
2012-2-29,35.3,31.8,28.5,31.8,26.7,20.6,94,82,58,30.37,29.78,13,1,13,0.01
2012-3-1,34.9,33.2,28.7,33.3,30.9,24.5,95,91,84,29.98,29.64,22,3,23,0.26
2012-3-2,35.9,30.9,26.6,32.8,27.3,23.3,96,86,79,30.10,29.81,13,2,13,0.13
2012-3-3,54.5,41.1,33.2,44.0,33.0,18.9,96,76,29,29.82,29.37,11,2,15,0.33
2012-3-4,41.3,33.6,26.4,28.1,23.9,19.6,89,69,44,29.69,29.54,12,1,12,0.00
2012-3-5,35.7,26.4,18.2,21.4,14.0,8.0,82,60,39,30.37,29.69,14,1,15,0.00
2012-3-6,39.4,26.4,12.8,22.5,13.8,9.7,89,62,34,30.61,30.37,10,1,10,0.00
2012-3-7,59.7,46.4,33.7,38.2,29.9,22.5,70,54,36,30.52,30.23,17,2,17,0.00
2012-3-8,67.3,58.1,41.7,51.0,46.4,38.1,87,66,52,30.24,29.70,21,4,21,0.03
2012-3-9,44.2,34.8,26.2,38.2,22.9,13.5,88,62,43,30.28,29.83,13,2,16,0.10
2012-3-10,38.7,29.3,23.7,22.4,18.1,14.5,92,63,44,30.49,30.26,11,1,13,0.00
2012-3-11,59.7,41.5,23.5,30.6,23.6,16.0,88,51,30,30.47,30.26,13,1,13,0.00
2012-3-12,70.5,50.1,28.9,42.5,32.5,26.2,91,57,25,30.29,30.07,9,0,9,0.01
2012-3-13,73.7,58.5,48.6,56.0,49.6,40.3,92,73,51,30.08,29.82,16,1,16,0.03
2012-3-14,63.7,51.9,37.2,48.3,38.9,32.1,92,64,32,30.19,29.93,15,1,15,0.00
2012-3-15,59.0,47.4,31.5,44.0,39.2,29.5,94,74,50,30.30,30.19,12,1,12,0.00
2012-3-16,49.9,44.3,39.9,47.1,42.1,36.7,95,92,88,30.27,30.08,9,0,9,0.10
2012-3-17,66.1,52.4,43.3,49.0,44.9,38.7,97,78,38,30.33,30.17,8,0,8,0.00
2012-3-18,73.7,53.5,39.0,54.5,45.8,37.4,97,79,38,30.31,30.12,8,0,8,0.00
2012-3-19,80.6,59.8,40.6,58.6,48.3,39.5,100,71,29,30.19,30.09,8,0,8,0.00
2012-3-20,77.2,60.5,45.3,58.9,51.0,44.2,98,74,43,30.29,30.18,12,0,12,0.00
2012-3-21,75.0,58.9,43.8,61.1,53.2,42.5,98,83,56,30.35,30.21,11,0,11,0.00
2012-3-22,78.7,61.2,46.5,60.4,53.5,45.4,98,79,44,30.24,30.03,8,0,9,0.00
2012-3-23,73.3,59.4,48.3,54.6,47.2,38.8,100,69,31,30.12,30.01,10,0,10,0.00
2012-3-24,64.1,55.6,47.8,46.1,32.7,22.9,76,44,24,30.08,29.96,9,1,9,0.00
2012-3-25,56.4,48.5,42.6,47.0,39.4,31.7,85,71,55,29.97,29.71,8,0,8,0.01
2012-3-26,52.4,42.0,29.3,48.0,26.5,5.1,93,57,32,30.09,29.65,11,1,20,0.00
2012-3-27,45.0,35.1,23.4,20.8,10.8,1.9,62,38,18,30.28,30.09,11,1,11,0.00
2012-3-28,57.6,44.4,33.5,49.4,31.8,4.3,99,66,22,30.14,29.52,10,1,12,0.14
2012-3-29,49.1,43.0,37.0,41.4,35.3,23.6,88,74,58,29.98,29.59,12,1,14,0.01
2012-3-30,49.4,40.1,30.9,33.4,21.4,14.4,87,49,25,30.07,29.95,11,1,12,0.00
2012-3-31,43.9,38.0,34.0,38.0,34.7,32.5,95,88,72,29.97,29.86,7,1,10,0.09
2012-4-1,47.2,41.1,37.1,40.2,37.7,35.5,96,88,66,29.89,29.63,8,0,10,0.35
2012-4-2,53.6,42.7,34.2,37.4,29.6,14.1,95,64,31,29.84,29.60,20,1,20,0.01
2012-4-3,57.4,41.4,23.2,28.6,21.4,15.8,91,51,20,29.91,29.74,14,0,15,0.00
2012-4-4,59.9,46.3,31.7,35.7,30.1,20.3,83,56,29,29.76,29.53,20,1,20,0.00
2012-4-5,48.3,38.6,28.4,31.8,28.0,23.6,93,67,46,29.94,29.71,11,1,15,0.00
2012-4-6,51.4,38.7,22.3,30.9,24.3,18.1,93,60,31,30.03,29.90,12,1,15,0.00
2012-4-7,56.4,42.3,24.5,30.1,24.9,20.7,87,53,32,30.05,29.93,15,1,15,0.00
2012-4-8,59.9,45.8,31.7,33.3,28.6,21.1,84,53,33,29.99,29.62,14,1,16,0.00
2012-4-9,52.7,47.4,38.9,40.6,32.2,23.4,89,57,36,29.68,29.56,23,2,23,0.09
2012-4-10,56.2,48.9,40.7,34.5,27.6,23.2,67,45,29,29.77,29.58,16,1,16,0.00
2012-4-11,53.7,42.4,29.8,37.2,32.5,27.5,93,70,44,29.90,29.76,9,0,9,0.00
2012-4-12,56.7,45.7,36.5,40.5,36.4,30.8,90,71,42,30.11,29.90,13,1,16,0.01
2012-4-13,62.7,47.4,29.0,37.7,31.9,26.6,96,61,27,30.19,30.06,13,1,17,0.00
2012-4-14,71.2,52.8,29.0,38.5,31.2,25.3,90,50,20,30.19,29.96,13,1,13,0.00
2012-4-15,74.8,62.8,50.5,57.9,53.0,38.3,96,72,43,29.98,29.88,10,1,11,0.03
2012-4-16,88.0,73.6,56.2,59.7,56.0,49.1,92,58,28,29.96,29.81,13,1,13,0.00
2012-4-17,71.0,62.5,47.1,57.9,44.2,32.4,68,52,36,30.22,29.84,14,1,14,0.00
2012-4-18,54.8,48.3,36.1,36.4,34.0,30.9,85,59,43,30.26,30.10,9,1,11,0.00
2012-4-19,73.6,54.8,31.5,44.6,37.4,29.6,94,58,25,30.10,29.93,10,1,10,0.00
2012-4-20,76.1,61.3,42.8,54.1,46.9,40.2,93,62,30,29.97,29.81,13,1,16,0.00
2012-4-21,76.5,60.7,44.4,59.3,52.9,42.5,94,77,50,29.82,29.60,13,1,13,0.14
2012-4-22,44.5,41.8,40.0,42.6,40.0,37.9,100,93,85,29.83,29.46,14,0,14,0.85
2012-4-23,61.6,49.0,42.0,56.6,45.5,39.9,98,88,74,29.46,29.19,18,2,18,0.77
2012-4-24,52.4,44.9,37.9,41.2,35.6,30.3,92,71,44,29.66,29.30,18,2,18,0.04
2012-4-25,54.8,44.5,31.6,40.9,34.1,29.3,93,68,47,29.91,29.66,14,1,14,0.00
2012-4-26,58.6,47.4,28.3,51.3,39.1,26.8,96,75,43,29.93,29.55,13,1,13,0.02
2012-4-27,52.1,42.4,37.5,50.4,32.2,25.7,95,68,52,30.08,29.56,22,2,22,0.01
2012-4-28,56.0,43.7,31.4,28.4,22.7,16.0,74,45,25,30.20,30.07,16,1,16,0.00
2012-4-29,57.0,43.4,26.1,28.0,21.7,15.4,80,45,24,30.25,30.06,22,1,22,0.00
2012-4-30,62.9,48.5,27.0,38.3,26.8,18.5,82,47,24,30.33,30.13,10,0,10,0.00
2012-5-1,58.3,51.4,46.9,53.5,47.4,37.9,98,87,67,30.13,29.97,9,0,12,0.24
2012-5-2,54.8,50.9,46.9,48.9,46.8,44.3,93,86,79,30.16,30.07,11,1,11,0.00
2012-5-3,61.3,51.1,48.6,56.5,49.2,47.2,96,93,82,30.12,30.02,8,0,8,0.17
2012-5-4,74.6,61.3,52.6,65.4,57.7,50.9,97,89,70,30.04,29.83,11,0,11,0.11
2012-5-5,69.0,58.2,51.3,58.5,52.0,44.6,98,82,53,30.05,29.87,12,1,12,0.00
2012-5-6,70.5,56.1,44.3,53.3,46.5,39.6,92,72,44,30.09,30.00,10,0,10,0.00
2012-5-7,71.7,57.7,44.1,56.9,48.7,42.6,97,74,48,30.10,30.00,12,1,12,0.05
2012-5-8,57.7,54.9,49.6,56.1,50.6,41.6,95,86,65,30.03,29.80,8,1,12,0.17
2012-5-9,67.2,60.4,56.8,62.2,58.4,55.7,97,93,82,29.80,29.57,10,0,10,0.60
2012-5-10,58.1,52.4,46.8,56.0,47.2,39.9,97,83,56,29.75,29.48,20,1,22,0.29
2012-5-11,65.4,52.9,38.6,41.7,37.4,29.4,92,60,27,30.08,29.75,18,1,18,0.00
2012-5-12,78.8,57.3,33.2,50.6,42.3,31.9,97,64,28,30.20,30.07,12,1,12,0.00
2012-5-13,79.8,65.5,49.1,58.0,52.6,47.4,95,67,38,30.15,30.02,9,0,9,0.00
2012-5-14,73.0,61.6,58.0,64.4,58.6,55.5,97,90,67,30.11,30.04,10,0,10,0.75
2012-5-15,64.1,60.9,59.5,62.4,59.8,58.7,98,96,92,30.09,29.92,11,0,11,0.58
2012-5-16,79.0,66.8,57.4,67.3,61.1,49.5,98,84,56,29.93,29.74,14,0,14,0.00
2012-5-17,65.4,55.2,43.2,49.5,43.2,39.9,91,66,41,30.15,29.93,8,1,14,0.00
2012-5-18,74.6,57.4,38.3,52.1,44.7,37.0,97,67,34,30.22,30.11,6,0,8,0.00
2012-5-19,81.3,63.0,42.3,57.7,50.3,41.0,97,67,37,30.17,30.07,9,0,10,0.00
2012-5-20,85.3,68.1,49.8,61.0,53.1,42.8,97,63,36,30.24,30.14,12,0,12,0.00
2012-5-21,69.1,62.2,52.2,63.5,55.3,37.1,97,79,55,30.21,29.99,10,0,12,0.16
2012-5-22,71.3,64.8,62.2,65.8,63.1,61.5,98,94,81,29.99,29.78,7,0,7,0.42
2012-5-23,80.5,68.0,61.6,67.9,64.4,61.0,98,89,62,30.01,29.83,6,0,6,0.03
2012-5-24,74.7,67.4,58.3,67.1,63.1,57.5,98,87,74,30.17,30.01,8,0,8,0.01
2012-5-25,75.5,68.1,62.0,68.7,64.7,60.6,97,89,77,30.18,30.06,9,0,9,0.04
2012-5-26,82.3,72.2,60.4,72.1,65.8,58.5,95,82,52,30.10,30.05,8,0,8,0.00
2012-5-27,82.7,70.1,53.6,65.3,59.5,51.9,96,72,45,30.17,29.97,8,0,8,0.00
2012-5-28,87.8,76.4,64.8,73.8,68.6,63.1,96,78,57,29.98,29.83,8,0,8,0.00
2012-5-29,91.8,76.9,65.6,76.7,70.2,64.7,98,81,47,29.83,29.61,17,0,17,1.18
2012-5-30,80.5,68.3,62.5,67.2,64.1,59.2,98,88,52,29.75,29.65,14,0,14,0.56
2012-5-31,74.0,64.2,53.3,61.6,55.0,49.7,98,75,45,29.94,29.73,15,0,15,0.00
2012-6-1,73.0,62.1,48.2,58.9,53.2,46.9,97,74,56,30.02,29.86,23,2,23,0.00
2012-6-2,66.2,59.2,55.1,61.5,56.3,52.9,96,90,77,29.87,29.70,13,1,13,0.53
2012-6-3,72.2,59.1,51.4,58.8,54.6,50.6,98,86,51,29.78,29.64,18,0,18,0.75
2012-6-4,59.7,54.0,49.3,53.1,49.7,46.0,97,86,71,29.86,29.64,13,1,13,0.02
2012-6-5,62.6,54.5,47.4,54.5,50.3,46.0,97,86,71,29.96,29.84,6,0,6,0.00
2012-6-6,69.2,55.8,45.6,57.5,51.5,44.5,98,87,55,30.03,29.94,10,0,10,0.06
2012-6-7,72.8,58.9,44.9,59.2,53.1,44.1,98,83,52,30.01,29.93,10,1,10,0.01
2012-6-8,79.3,63.9,47.9,62.4,55.5,46.8,98,77,43,29.97,29.81,9,0,9,0.00
2012-6-9,72.5,63.2,54.3,63.2,59.1,52.9,97,87,68,30.00,29.83,9,0,9,0.00
2012-6-10,83.8,71.0,56.8,68.8,63.3,55.7,98,79,50,30.19,30.00,10,0,10,0.00
2012-6-11,78.1,68.4,58.5,64.1,59.1,55.4,96,74,52,30.25,30.18,12,1,12,0.00
2012-6-12,70.8,64.3,57.8,65.2,60.9,54.6,97,89,76,30.19,29.92,11,0,11,0.48
2012-6-13,75.5,66.0,56.6,63.5,60.2,54.2,98,83,57,30.11,29.89,7,0,10,0.28
2012-6-14,77.5,64.7,50.2,62.5,56.8,49.1,98,78,49,30.27,30.11,8,0,8,0.00
2012-6-15,79.7,67.1,55.8,61.2,55.0,50.7,97,69,37,30.34,30.25,11,0,11,0.00
2012-6-16,81.5,66.5,49.8,62.5,55.7,48.7,100,71,43,30.36,30.21,8,0,8,0.00
2012-6-17,75.8,65.0,56.8,64.0,58.3,53.0,96,80,61,30.24,30.06,8,0,8,0.00
2012-6-18,72.7,61.3,49.4,60.9,55.3,48.3,97,82,62,30.16,30.08,11,0,11,0.00
2012-6-19,77.5,67.4,58.3,68.9,62.4,55.2,92,84,73,30.16,30.05,11,0,11,0.00
2012-6-20,93.9,79.1,65.1,78.7,71.6,63.9,97,80,52,30.08,29.93,12,0,12,0.00
2012-6-21,94.2,80.0,67.1,77.8,70.6,66.0,97,76,43,29.95,29.77,10,0,10,0.00
2012-6-22,87.3,74.7,66.1,73.6,69.4,64.9,97,85,60,29.84,29.76,9,0,9,0.00
2012-6-23,82.9,69.1,56.6,67.0,61.2,54.8,97,78,45,30.02,29.83,13,1,13,0.01
2012-6-24,81.3,67.8,50.4,63.4,57.8,49.6,98,74,41,30.04,29.89,9,0,9,0.00
2012-6-25,73.8,63.1,53.1,66.1,60.3,51.7,98,91,68,29.89,29.67,20,0,22,0.79
2012-6-26,66.5,59.0,52.6,59.5,53.6,49.7,95,83,66,29.75,29.69,13,0,14,0.03
2012-6-27,78.2,64.9,51.4,56.8,53.0,48.5,97,69,37,29.81,29.68,10,1,17,0.00
2012-6-28,85.6,69.0,49.9,66.2,58.5,48.5,97,72,46,29.84,29.70,11,0,11,0.00
2012-6-29,92.5,75.5,61.8,75.7,65.0,54.5,96,73,33,29.73,29.61,12,0,12,0.01
2012-6-30,90.7,74.2,56.4,68.7,61.1,53.5,97,68,30,29.78,29.69,12,0,12,0.00
2012-7-1,89.3,74.2,60.0,71.0,62.7,54.1,97,71,35,29.89,29.78,11,0,11,0.00
2012-7-2,81.9,69.6,56.4,65.5,60.3,55.0,97,75,45,29.94,29.88,12,0,12,0.00
2012-7-3,87.2,72.3,54.3,67.8,59.6,53.2,96,69,33,29.98,29.83,10,0,10,0.00
2012-7-4,88.7,76.6,66.8,73.2,69.0,64.7,97,79,54,29.84,29.70,9,0,9,0.02
2012-7-5,83.2,74.3,64.0,69.3,65.7,61.0,98,77,54,29.91,29.73,12,0,12,0.00
2012-7-6,91.2,73.9,56.4,70.4,63.1,55.3,98,73,36,29.97,29.85,9,0,9,0.00
2012-7-7,88.0,73.6,61.8,72.9,66.6,60.5,97,80,49,29.88,29.80,9,0,9,0.01
2012-7-8,86.5,73.8,59.3,69.5,62.3,55.8,97,71,38,29.92,29.82,13,1,13,0.00
2012-7-9,83.0,69.0,52.7,59.7,54.2,50.0,96,64,34,30.02,29.91,11,0,11,0.00
2012-7-10,85.0,69.3,51.0,59.0,53.6,48.6,94,62,32,30.12,30.01,10,0,10,0.00
2012-7-11,89.3,73.8,54.4,64.6,58.5,52.7,97,64,31,30.19,30.12,8,0,8,0.00
2012-7-12,92.3,76.7,59.6,67.4,62.7,58.1,96,66,36,30.21,30.10,8,0,8,0.00
2012-7-13,91.6,78.3,61.6,70.5,65.6,59.3,94,67,43,30.20,30.12,8,0,8,0.00
2012-7-14,89.6,75.9,66.2,71.0,66.4,62.3,98,76,41,30.22,30.09,10,0,10,0.78
2012-7-15,83.8,73.4,63.3,74.3,68.7,61.8,97,86,65,30.14,29.92,7,0,7,0.24
2012-7-16,87.3,75.9,67.3,73.8,69.7,66.6,98,83,57,29.93,29.79,10,0,10,0.00
2012-7-17,92.8,79.2,65.3,72.9,69.0,64.2,97,74,48,29.85,29.69,13,0,13,0.00
2012-7-18,93.2,80.1,69.5,77.4,71.3,67.2,94,76,54,29.91,29.75,15,0,15,0.02
2012-7-19,84.7,73.7,65.9,68.5,61.8,55.1,87,68,39,30.01,29.91,8,0,8,0.00
2012-7-20,68.7,64.5,60.1,64.5,59.4,53.2,96,84,63,30.10,29.99,8,0,8,0.47
2012-7-21,83.3,69.6,56.1,63.8,57.8,51.5,98,70,36,30.13,30.05,8,0,8,0.00
2012-7-22,84.4,71.3,55.1,66.9,61.4,53.7,97,73,49,30.17,30.08,10,0,10,0.00
2012-7-23,83.8,71.3,65.2,74.1,67.5,62.5,97,89,70,30.11,29.80,21,0,21,1.63
2012-7-24,85.2,73.4,62.0,73.2,67.1,55.5,98,82,54,29.85,29.62,15,0,15,0.07
2012-7-25,81.1,67.7,52.9,63.9,57.6,51.7,97,73,45,29.92,29.80,14,1,14,0.00
2012-7-26,83.7,70.8,62.8,74.2,66.4,59.8,95,86,71,29.82,29.59,11,0,11,0.15
2012-7-27,82.2,73.1,68.5,73.1,69.5,67.1,98,89,69,29.92,29.66,7,0,7,0.06
2012-7-28,75.3,69.4,65.4,71.4,67.7,64.5,97,94,85,29.99,29.91,5,0,6,0.94
2012-7-29,76.6,68.2,63.2,68.7,65.3,62.1,98,91,69,30.09,29.96,6,0,6,0.22
2012-7-30,81.8,70.4,61.8,70.2,65.6,61.2,98,86,65,30.14,30.07,9,0,9,0.00
2012-7-31,78.4,69.0,61.9,67.7,63.8,61.0,98,84,64,30.12,29.93,9,1,12,0.00
2012-8-1,84.2,72.0,61.6,71.3,66.7,60.7,98,85,59,29.95,29.84,9,0,9,0.00
2012-8-2,87.2,74.7,64.6,71.8,67.4,63.6,98,80,52,29.92,29.86,9,0,9,0.00
2012-8-3,90.8,75.9,63.6,73.9,68.4,62.7,98,80,46,30.11,29.92,7,0,7,0.00
2012-8-4,91.2,78.9,67.0,78.4,71.7,66.1,98,80,56,30.20,30.11,8,0,8,0.00
2012-8-5,86.3,76.3,70.9,76.8,72.6,68.9,97,89,70,30.20,29.90,13,0,13,0.51
2012-8-6,78.7,71.0,58.7,70.7,63.7,56.8,97,79,55,30.06,29.97,12,0,12,0.00
2012-8-7,81.9,67.5,52.6,65.7,59.0,51.6,98,77,46,30.07,29.97,7,0,7,0.00
2012-8-8,87.5,72.0,57.3,71.0,63.6,56.2,98,78,43,30.02,29.94,7,0,8,0.00
2012-8-9,88.0,74.6,62.7,74.6,67.9,61.8,98,81,54,29.98,29.86,11,0,11,0.00
2012-8-10,76.7,71.1,68.0,73.1,69.3,66.3,97,94,87,29.90,29.78,10,0,10,0.61
2012-8-11,85.2,74.0,66.8,75.2,70.6,65.9,99,90,67,29.92,29.82,12,0,14,0.03
2012-8-12,84.0,73.9,65.4,71.5,66.3,62.6,98,79,50,29.95,29.88,12,0,12,0.06
2012-8-13,80.5,69.0,58.6,67.9,63.1,57.5,98,83,58,30.02,29.95,12,0,12,0.00
2012-8-14,77.8,68.0,58.0,68.5,63.7,57.2,98,87,62,30.00,29.91,6,0,6,0.03
2012-8-15,79.8,70.6,63.2,69.8,66.2,62.3,98,87,66,29.93,29.88,0,0,0,0.46
2012-8-16,82.5,70.8,62.6,67.1,63.8,60.3,98,81,51,29.95,29.86,0,0,0,0.00
2012-8-17,83.4,68.9,56.3,71.3,63.8,55.5,98,85,62,29.91,29.79,0,0,0,0.21
2012-8-18,74.7,65.3,53.7,63.4,58.3,51.9,98,80,49,29.99,29.87,0,0,0,0.09
2012-8-19,74.3,60.8,47.4,61.2,54.1,46.3,100,81,51,30.03,29.93,0,0,2,0.00
2012-8-20,79.8,64.3,51.2,64.2,58.2,50.4,98,83,51,29.97,29.86,5,0,5,0.01
2012-8-21,78.4,67.0,56.0,62.6,58.5,53.2,98,77,43,30.12,29.95,10,0,10,0.00
2012-8-22,82.7,65.9,51.2,65.3,57.6,49.7,96,77,46,30.18,30.10,1,0,1,0.00
2012-8-23,85.1,68.6,54.7,67.1,60.8,53.9,98,79,47,30.18,30.11,0,0,0,0.00
2012-8-24,85.3,69.6,55.1,66.3,60.2,54.3,98,76,37,30.22,30.16,0,0,0,0.00
2012-8-25,84.8,71.0,59.1,69.4,63.1,57.7,96,78,51,30.32,30.22,5,0,5,0.00
2012-8-26,85.8,71.4,59.0,67.0,60.5,56.1,91,71,45,30.35,30.23,7,0,7,0.00
2012-8-27,82.0,69.2,56.4,71.6,64.8,54.7,96,87,69,30.25,29.95,9,0,9,0.00
2012-8-28,82.8,71.8,60.5,71.5,66.2,58.8,98,84,56,29.95,29.80,14,0,14,1.20
2012-8-29,73.5,61.9,50.1,59.0,52.1,47.7,96,73,43,30.07,29.93,13,0,13,0.00
2012-8-30,79.7,61.6,44.0,60.1,52.9,42.9,100,76,45,30.13,30.04,10,0,10,0.00
2012-8-31,86.5,68.9,48.9,66.7,59.2,47.8,98,75,48,30.07,29.87,10,0,10,0.00
2012-9-1,85.3,72.3,63.2,71.6,63.3,58.1,95,76,42,30.09,29.91,10,0,10,0.00
2012-9-2,82.0,69.6,61.3,67.4,60.3,53.1,95,75,39,30.14,30.05,10,0,10,0.00
2012-9-3,80.5,68.7,59.2,63.0,59.2,54.2,92,73,45,30.20,30.13,11,0,11,0.00
2012-9-4,73.8,70.2,65.7,71.6,66.6,55.5,95,88,67,30.15,29.82,7,0,7,0.01
2012-9-5,78.2,72.0,62.4,72.4,68.3,61.2,97,89,71,29.87,29.74,10,0,10,1.29
2012-9-6,79.7,67.6,57.9,69.7,64.1,57.2,99,89,66,29.95,29.86,6,0,6,0.00
2012-9-7,86.3,73.0,62.8,71.2,66.7,62.0,98,83,52,29.96,29.85,7,0,7,0.00
2012-9-8,80.3,68.6,59.3,73.7,65.7,57.9,98,91,74,29.87,29.55,19,1,19,1.60
2012-9-9,73.5,62.4,53.5,60.3,57.4,52.8,99,85,55,29.93,29.78,10,0,10,0.01
2012-9-10,66.1,56.1,45.0,55.7,48.9,42.7,98,79,52,30.16,29.93,14,0,14,0.00
2012-9-11,71.4,54.1,38.2,56.5,46.1,37.2,98,78,42,30.31,30.16,10,0,10,0.00
2012-9-12,79.7,60.8,45.7,60.3,53.2,44.6,100,79,46,30.39,30.31,8,0,8,0.00
2012-9-13,80.9,63.2,48.9,63.8,56.0,48.0,98,80,49,30.39,30.27,8,0,8,0.00
2012-9-14,80.3,65.2,51.7,64.6,58.3,50.8,99,80,53,30.30,30.08,11,0,11,0.00
2012-9-15,66.8,56.7,46.1,59.5,51.1,44.8,97,83,59,30.16,30.08,13,0,13,0.11
2012-9-16,70.7,55.0,43.4,54.9,48.3,42.3,98,81,46,30.16,30.05,12,0,12,0.00
2012-9-17,77.3,58.1,41.6,60.2,51.5,40.8,98,81,49,30.14,30.03,7,0,7,0.00
2012-9-18,72.8,64.6,52.4,69.2,62.8,51.0,97,94,87,30.05,29.58,21,1,21,1.94
2012-9-19,65.1,56.3,44.0,64.2,50.2,42.9,97,82,51,30.24,29.70,15,1,15,0.08
2012-9-20,67.9,55.2,41.9,55.3,48.8,40.8,97,80,56,30.27,30.14,10,0,10,0.00
2012-9-21,73.1,60.1,49.8,60.3,54.5,48.2,97,83,57,30.15,30.02,10,0,10,0.00
2012-9-22,71.5,61.1,50.3,64.3,57.6,49.2,100,89,73,30.03,29.80,11,0,11,0.62
2012-9-23,65.3,54.5,41.7,56.0,48.4,40.3,98,82,44,30.15,29.85,11,0,11,0.00
2012-9-24,63.2,49.1,39.3,48.5,43.0,38.3,100,82,47,30.19,30.10,10,0,10,0.00
2012-9-25,70.8,53.8,36.3,54.8,44.8,35.3,98,75,38,30.19,30.12,10,0,10,0.00
2012-9-26,67.0,61.9,56.7,61.5,58.5,54.6,95,89,78,30.13,30.02,10,0,10,0.02
2012-9-27,66.7,59.6,49.1,61.2,53.3,46.9,98,81,54,30.24,30.04,10,0,10,0.00
2012-9-28,55.4,53.2,51.3,53.4,51.4,46.6,97,94,73,30.23,30.00,9,0,9,0.97
2012-9-29,60.2,55.3,52.6,56.0,53.4,51.8,98,93,82,30.00,29.90,6,0,6,0.01
2012-9-30,62.1,53.9,47.1,56.3,52.2,46.3,100,94,75,29.92,29.76,10,0,10,0.45
2012-10-1,64.7,54.5,48.4,56.8,51.4,47.6,98,90,68,30.00,29.76,10,0,10,0.01
2012-10-2,60.1,56.4,51.8,58.7,55.4,51.0,100,96,91,30.07,29.99,5,0,5,0.31
2012-10-3,71.1,65.0,59.3,69.0,64.1,58.7,100,97,92,30.13,30.03,3,0,3,0.01
2012-10-4,69.3,64.9,58.4,68.2,64.3,57.8,100,98,95,30.17,30.06,7,0,7,0.42
2012-10-5,76.2,63.1,56.4,64.1,59.2,56.0,99,89,57,30.09,29.92,7,0,7,0.01
2012-10-6,71.9,56.9,42.8,62.5,53.1,41.4,98,88,70,30.02,29.75,13,0,13,0.00
2012-10-7,52.8,46.4,38.3,45.7,42.3,37.0,98,86,67,30.13,30.01,4,0,4,0.21
2012-10-8,52.9,46.3,41.7,45.8,42.6,40.1,98,88,63,30.32,30.11,8,0,8,0.01
2012-10-9,56.3,50.0,41.7,49.7,46.6,40.1,96,88,76,30.31,30.12,8,0,8,0.00
2012-10-10,57.7,53.0,43.4,56.3,50.7,42.2,96,92,82,30.14,29.79,9,0,9,0.11
2012-10-11,56.9,45.6,36.6,42.2,37.9,35.1,100,77,46,30.20,29.93,15,1,15,0.01
2012-10-12,52.3,42.3,29.4,41.2,33.4,26.3,94,72,48,30.46,30.07,19,1,19,0.03
2012-10-13,52.3,39.3,24.1,37.2,28.4,22.6,96,68,38,30.55,30.30,10,0,10,0.00
2012-10-14,67.2,54.6,45.8,55.9,48.7,37.1,95,81,65,30.31,29.92,12,1,12,0.23
2012-10-15,66.7,60.4,51.0,61.7,57.5,49.6,97,90,80,29.93,29.64,9,0,9,0.47
2012-10-16,53.7,46.7,37.1,49.6,40.2,34.4,97,79,60,29.97,29.68,16,1,16,0.00
2012-10-17,63.1,44.1,30.8,43.9,37.4,29.8,98,80,41,30.04,29.95,8,0,8,0.00
2012-10-18,67.6,51.4,35.8,52.2,44.5,34.8,98,80,45,30.09,29.99,11,1,11,0.00
2012-10-19,65.8,61.2,55.7,63.8,59.4,52.2,100,94,87,30.02,29.69,23,1,23,1.39
2012-10-20,70.7,59.0,41.8,62.6,52.1,39.8,99,80,43,29.81,29.64,12,0,12,0.00
2012-10-21,62.0,49.5,36.1,47.2,40.9,35.2,98,75,46,30.00,29.81,15,1,15,0.00
2012-10-22,65.3,52.9,42.8,48.3,44.0,39.8,92,73,50,30.11,29.99,16,1,16,0.00
2012-10-23,56.4,47.7,37.6,51.3,45.3,36.6,100,91,77,30.18,30.09,4,0,4,0.12
2012-10-24,55.3,52.0,49.0,50.5,48.9,45.6,98,89,73,30.24,30.15,7,0,7,0.05
2012-10-25,60.3,54.9,50.9,53.9,50.8,48.1,93,86,77,30.31,30.23,8,0,8,0.00
2012-10-26,60.9,57.4,55.1,55.8,53.9,51.9,92,88,82,30.26,30.15,8,0,8,0.00
2012-10-27,61.2,56.9,51.8,56.0,53.7,49.8,96,89,80,30.15,30.00,7,0,7,0.01
2012-10-28,56.3,54.1,51.8,53.5,47.4,41.6,96,78,61,30.00,29.77,12,1,12,0.00
2012-10-29,64.1,56.3,51.8,60.2,52.5,46.2,93,87,81,29.78,28.97,30,4,30,0.77
2012-10-30,62.1,57.0,53.0,55.6,50.8,47.6,92,80,66,29.51,29.15,27,4,27,0.07
2012-10-31,54.4,46.2,42.6,49.7,41.4,38.4,95,84,70,29.59,29.45,10,1,10,0.08
2012-11-1,49.3,44.9,40.8,43.5,40.8,37.6,94,86,75,29.61,29.55,8,0,8,0.02
2012-11-2,47.9,43.3,38.9,42.8,38.4,34.9,96,83,67,29.75,29.60,11,0,11,0.02
2012-11-3,46.0,40.5,36.6,36.6,33.9,31.5,92,78,62,29.95,29.74,16,1,16,0.01
2012-11-4,45.1,38.1,32.4,34.3,31.4,28.0,90,77,64,30.03,29.95,14,0,14,0.00
2012-11-5,39.7,33.6,22.8,28.5,24.6,19.8,88,70,52,30.22,30.02,9,0,9,0.00
2012-11-6,42.9,29.1,18.1,26.2,21.1,16.2,94,74,45,30.29,30.17,7,0,7,0.00
2012-11-7,36.8,32.5,26.5,28.4,25.4,18.6,93,75,50,30.19,29.90,15,1,15,0.00
2012-11-8,40.0,35.6,32.3,32.3,28.6,25.4,83,75,68,29.95,29.82,19,1,19,0.02
2012-11-9,50.0,40.6,29.9,37.0,28.7,21.6,79,64,34,30.20,29.95,14,0,14,0.00
2012-11-10,54.0,44.2,36.5,42.2,38.4,34.0,97,81,61,30.44,30.19,9,0,9,0.00
2012-11-11,66.0,54.1,40.9,49.2,44.9,37.6,92,72,49,30.49,30.41,11,1,11,0.00
2012-11-12,64.4,55.7,38.5,58.0,50.1,37.2,97,82,68,30.46,30.16,14,1,14,0.00
2012-11-13,62.0,43.1,34.7,58.1,38.3,27.8,96,83,66,30.49,30.12,16,1,16,0.57
2012-11-14,45.7,34.3,26.5,30.9,27.1,24.2,93,76,52,30.60,30.49,9,0,9,0.00
2012-11-15,41.6,32.0,23.6,30.5,26.5,21.8,94,81,59,30.53,30.35,7,0,7,0.00
2012-11-16,40.4,31.3,23.3,31.7,26.9,21.8,96,84,62,30.52,30.35,6,0,6,0.00
2012-11-17,45.9,33.2,24.4,35.5,28.1,22.8,100,82,60,30.71,30.52,8,0,8,0.00
2012-11-18,49.7,33.8,22.1,31.4,26.1,20.6,96,76,41,30.74,30.63,7,0,7,0.01
2012-11-19,50.2,35.4,26.1,34.8,28.7,23.9,94,78,45,30.64,30.30,7,0,7,0.00
2012-11-20,51.3,36.4,24.8,35.9,29.3,23.2,100,78,46,30.30,30.16,10,0,10,0.00
2012-11-21,54.8,36.8,27.9,34.0,28.6,25.8,93,75,35,30.30,30.20,8,0,8,0.00
2012-11-22,56.4,37.4,25.4,40.4,31.2,23.9,96,80,48,30.32,30.15,7,0,7,0.00
2012-11-23,58.9,42.7,26.3,43.8,35.2,25.1,97,78,44,30.15,29.65,12,0,12,0.03
2012-11-24,45.7,36.4,29.9,42.7,26.1,19.7,90,66,51,29.80,29.64,21,2,21,0.00
2012-11-25,36.6,32.0,28.6,27.4,24.3,19.6,83,73,58,29.92,29.79,14,1,14,0.00
2012-11-26,40.4,34.1,29.7,31.4,27.0,24.4,90,75,62,30.28,29.91,13,0,13,0.00
2012-11-27,34.2,32.3,29.6,32.9,30.8,27.3,97,94,89,30.34,30.25,2,0,2,0.11
2012-11-28,37.2,31.3,24.4,31.1,26.4,22.2,97,83,59,30.26,30.18,9,0,9,0.01
2012-11-29,44.3,33.4,24.6,28.6,25.2,22.2,92,73,44,30.33,30.22,10,1,10,0.00
2012-11-30,34.5,29.5,25.4,27.8,24.3,20.1,90,81,67,30.53,30.28,9,1,10,0.00
2012-12-1,36.5,30.9,25.6,35.1,28.1,20.6,95,89,72,30.61,30.47,13,2,13,0.05
2012-12-2,48.1,42.9,35.8,45.5,40.9,34.5,100,93,85,30.47,30.09,10,1,10,0.32
2012-12-3,50.6,42.9,29.9,46.0,40.1,28.9,98,90,75,30.32,30.08,11,0,11,0.00
2012-12-4,55.5,46.7,30.9,52.9,45.0,29.9,98,94,90,30.31,29.93,12,1,12,0.00
2012-12-5,56.2,41.8,28.1,53.1,35.7,18.6,96,79,62,30.27,29.89,17,1,17,0.26
2012-12-6,36.2,26.7,20.3,23.6,19.8,17.4,93,76,55,30.42,30.26,9,0,9,0.00
2012-12-7,38.9,33.5,21.8,37.9,30.6,19.3,96,89,73,30.30,30.05,7,0,7,0.10
2012-12-8,46.0,42.1,37.7,45.5,41.4,36.7,100,97,96,30.06,29.88,8,0,8,0.32
2012-12-9,44.9,40.3,36.6,44.3,35.7,32.4,98,84,71,30.30,30.03,10,0,10,0.10
2012-12-10,52.5,47.1,39.6,51.7,45.9,37.5,100,95,90,30.06,29.55,15,2,15,0.20
2012-12-11,41.2,35.5,25.1,39.6,31.7,23.4,97,86,72,30.23,29.67,11,0,11,0.08
2012-12-12,39.9,27.6,21.8,30.2,24.5,20.6,100,89,66,30.49,30.23,5,0,5,0.00
2012-12-13,42.4,28.9,21.4,31.9,24.9,20.1,100,86,58,30.53,30.33,7,0,7,0.00
2012-12-14,47.2,31.2,19.2,31.4,25.4,17.8,96,81,45,30.33,30.17,7,0,7,0.01
2012-12-15,44.2,34.4,25.8,33.1,28.4,24.2,95,79,57,30.35,30.24,10,0,10,0.00
2012-12-16,35.2,34.0,32.8,32.8,30.0,26.7,96,85,71,30.27,30.00,16,2,18,0.00
2012-12-17,40.2,37.0,34.4,38.9,35.5,32.3,100,94,91,30.00,29.69,16,1,16,0.41
2012-12-18,44.5,41.9,38.3,43.4,40.8,37.3,100,96,94,29.70,29.47,25,2,25,0.80
2012-12-19,43.6,38.3,35.4,37.4,32.3,28.4,96,79,69,30.15,29.58,10,1,10,0.05
2012-12-20,41.1,35.4,25.9,34.8,29.3,23.7,100,79,64,30.26,29.85,14,1,16,0.07
2012-12-21,52.1,40.2,34.9,51.0,37.5,30.7,100,90,83,29.85,29.03,41,6,41,1.51
2012-12-22,35.3,31.5,27.4,32.0,26.2,22.1,94,81,66,29.78,29.25,21,2,21,0.01
2012-12-23,37.2,32.6,29.2,28.4,25.0,21.6,83,74,62,29.94,29.77,8,0,10,0.01
2012-12-24,34.7,31.0,26.5,26.3,23.4,21.5,92,74,63,30.12,29.93,10,0,10,0.00
2012-12-25,32.3,29.9,27.1,29.5,26.5,22.9,94,87,80,30.33,29.97,8,0,8,0.01
2012-12-26,33.5,26.7,19.1,32.0,21.5,14.8,96,81,61,30.36,29.67,30,3,30,0.00
2012-12-27,35.6,30.7,24.5,33.8,28.3,20.4,100,91,84,29.84,29.45,35,3,35,0.01
2012-12-28,30.8,27.8,24.2,25.6,23.5,20.0,92,84,77,30.12,29.84,11,0,11,0.00
2012-12-29,31.1,27.8,25.6,27.7,25.4,23.1,95,91,80,30.08,29.58,9,0,9,0.00
2012-12-30,29.0,23.7,16.7,25.5,17.5,10.9,93,77,58,30.18,29.61,16,1,16,0.00
2012-12-31,33.8,26.9,15.9,24.9,19.9,10.8,84,75,65,30.16,29.84,6,0,6,0.01
2013-1-1,35.0,26.6,9.2,27.6,19.3,5.9,92,74,63,30.02,29.82,15,0,15,0.00